createdAt,value
2023-02-26T00:01:26.887Z,57.11
2023-02-26T00:03:56.224Z,57.54
2023-02-26T00:06:24.628Z,57.36
2023-02-26T00:08:51.531Z,57.81
2023-02-26T00:11:18.680Z,57.87
2023-02-26T00:13:45.907Z,57.31
2023-02-26T00:16:32.687Z,56.90
2023-02-26T00:19:01.821Z,57.09
2023-02-26T00:21:29.479Z,57.30
2023-02-26T00:23:56.365Z,58.02
2023-02-26T00:26:24.456Z,58.38
2023-02-26T00:28:51.462Z,58.96
2023-02-26T00:31:18.721Z,57.01
2023-02-26T00:33:49.169Z,57.39
2023-02-26T00:36:21.806Z,57.30
2023-02-26T00:39:01.646Z,57.16
2023-02-26T00:41:29.552Z,57.42
2023-02-26T00:43:56.838Z,58.03
2023-02-26T00:46:44.451Z,56.47
2023-02-26T00:49:25.014Z,56.55
2023-02-26T00:52:00.124Z,56.20
2023-02-26T00:54:31.277Z,57.02
2023-02-26T00:57:01.139Z,55.91
2023-02-26T00:59:28.254Z,55.51
2023-02-26T01:01:54.719Z,56.32
2023-02-26T01:04:23.097Z,56.62
2023-02-26T01:06:52.819Z,56.12
2023-02-26T01:09:25.782Z,55.87
2023-02-26T01:11:53.844Z,55.50
2023-02-26T01:14:20.842Z,55.32
2023-02-26T01:17:04.079Z,56.23
2023-02-26T01:19:38.089Z,56.08
2023-02-26T01:22:21.324Z,56.06
2023-02-26T01:24:50.053Z,55.37
2023-02-26T01:27:17.227Z,56.69
2023-02-26T01:29:44.358Z,55.49
2023-02-26T01:32:33.698Z,56.20
2023-02-26T01:35:05.976Z,55.99
2023-02-26T01:37:45.455Z,55.52
2023-02-26T01:40:27.598Z,56.77
2023-02-26T01:42:58.325Z,55.83
2023-02-26T01:45:32.428Z,54.90
2023-02-26T01:48:06.789Z,55.34
2023-02-26T01:50:35.986Z,55.62
2023-02-26T01:53:24.326Z,55.46
2023-02-26T01:56:08.943Z,55.57
2023-02-26T01:58:36.816Z,55.78
2023-02-26T02:01:04.329Z,55.79
2023-02-26T02:06:07.772Z,55.60
2023-02-26T02:08:35.840Z,55.96
2023-02-26T02:11:04.724Z,54.46
2023-02-26T02:13:54.845Z,55.82
2023-02-26T02:16:42.705Z,55.25
2023-02-26T02:19:44.431Z,53.87
2023-02-26T02:22:36.898Z,53.86
2023-02-26T02:25:12.151Z,54.71
2023-02-26T02:27:52.337Z,54.92
2023-02-26T02:30:52.296Z,54.29
2023-02-26T02:33:21.432Z,53.84
2023-02-26T02:35:56.326Z,54.08
2023-02-26T02:38:31.205Z,54.75
2023-02-26T02:41:06.397Z,54.80
2023-02-26T02:43:34.521Z,55.98
2023-02-26T02:46:05.770Z,56.79
2023-02-26T02:48:35.898Z,57.14
2023-02-26T02:51:06.707Z,57.36
2023-02-26T02:53:39.573Z,56.69
2023-02-26T02:56:11.215Z,56.32
2023-02-26T02:58:42.829Z,56.68
2023-02-26T03:01:12.527Z,57.27
2023-02-26T03:03:50.751Z,56.96
2023-02-26T03:06:17.936Z,56.58
2023-02-26T03:08:45.774Z,56.69
2023-02-26T03:11:12.539Z,57.39
2023-02-26T03:13:40.336Z,57.35
2023-02-26T03:16:10.041Z,56.77
2023-02-26T03:18:42.449Z,57.88
2023-02-26T03:21:13.788Z,57.74
2023-02-26T03:23:46.528Z,58.49
2023-02-26T03:26:17.856Z,59.13
2023-02-26T03:28:58.135Z,58.38
2023-02-26T03:32:23.426Z,60.51
2023-02-26T03:34:55.828Z,59.01
2023-02-26T03:37:41.834Z,59.33
2023-02-26T03:40:12.651Z,59.02
2023-02-26T03:42:49.513Z,58.80
2023-02-26T03:45:29.287Z,57.46
2023-02-26T03:47:56.541Z,58.45
2023-02-26T03:50:32.567Z,59.02
2023-02-26T03:53:01.151Z,56.97
2023-02-26T03:55:35.059Z,58.07
2023-02-26T03:58:01.951Z,58.16
2023-02-26T04:00:29.108Z,58.29
2023-02-26T04:03:02.200Z,58.75
2023-02-26T04:05:33.618Z,59.19
2023-02-26T04:08:00.220Z,59.45
2023-02-26T04:10:38.388Z,60.45
2023-02-26T04:13:04.890Z,59.57
2023-02-26T04:15:31.373Z,58.68
2023-02-26T04:17:57.860Z,59.56
2023-02-26T04:20:24.388Z,58.98
2023-02-26T04:22:51.064Z,58.78
2023-02-26T04:25:17.581Z,59.30
2023-02-26T04:27:44.040Z,60.72
2023-02-26T04:30:11.159Z,60.75
2023-02-26T04:32:37.696Z,62.09
2023-02-26T04:35:04.475Z,62.72
2023-02-26T04:37:31.086Z,63.66
2023-02-26T04:39:57.546Z,64.67
2023-02-26T04:42:24.077Z,64.25
2023-02-26T04:44:50.585Z,63.15
2023-02-26T04:47:17.057Z,64.83
2023-02-26T04:49:44.593Z,64.22
2023-02-26T04:52:11.096Z,64.69
2023-02-26T04:54:38.002Z,65.82
2023-02-26T04:57:04.556Z,65.65
2023-02-26T04:59:30.995Z,65.63
2023-02-26T05:01:57.548Z,66.02
2023-02-26T05:04:24.130Z,64.63
2023-02-26T05:06:50.761Z,63.25
2023-02-26T05:09:17.322Z,62.60
2023-02-26T05:11:43.796Z,64.48
2023-02-26T05:14:10.227Z,64.91
2023-02-26T05:16:36.688Z,64.57
2023-02-26T05:19:03.262Z,66.05
2023-02-26T05:21:29.721Z,65.42
2023-02-26T05:23:56.270Z,64.00
2023-02-26T05:26:23.247Z,64.26
2023-02-26T05:28:49.856Z,64.57
2023-02-26T05:31:16.411Z,64.70
2023-02-26T05:33:43.256Z,64.50
2023-02-26T05:36:10.145Z,64.64
2023-02-26T05:38:36.741Z,63.89
2023-02-26T05:41:03.352Z,63.88
2023-02-26T05:43:30.482Z,65.01
2023-02-26T05:45:57.105Z,67.41
2023-02-26T05:48:23.696Z,67.06
2023-02-26T05:50:50.562Z,67.90
2023-02-26T05:53:17.092Z,67.51
2023-02-26T05:55:43.576Z,67.21
2023-02-26T05:58:10.236Z,67.07
2023-02-26T06:00:36.739Z,67.81
2023-02-26T06:03:03.375Z,68.81
2023-02-26T06:05:29.832Z,68.70
2023-02-26T06:07:56.314Z,67.99
2023-02-26T06:10:22.767Z,68.97
2023-02-26T06:12:49.371Z,68.17
2023-02-26T06:15:15.849Z,68.12
2023-02-26T06:17:42.389Z,68.38
2023-02-26T06:20:10.015Z,67.63
2023-02-26T06:22:36.599Z,67.21
2023-02-26T06:25:03.451Z,67.30
2023-02-26T06:27:29.942Z,67.91
2023-02-26T06:29:56.383Z,68.00
2023-02-26T06:32:23.015Z,68.31
2023-02-26T06:34:49.534Z,69.45
2023-02-26T06:37:16.448Z,68.92
2023-02-26T06:39:43.109Z,68.64
2023-02-26T06:42:09.680Z,68.59
2023-02-26T06:44:36.215Z,68.66
2023-02-26T06:47:02.747Z,68.83
2023-02-26T06:49:29.219Z,69.44
2023-02-26T06:51:55.638Z,70.53
2023-02-26T06:54:22.158Z,70.65
2023-02-26T06:56:48.586Z,70.80
2023-02-26T06:59:15.471Z,70.40
2023-02-26T07:01:41.937Z,70.31
2023-02-26T07:04:08.509Z,70.31
2023-02-26T07:06:35.175Z,70.30
2023-02-26T07:09:01.785Z,69.29
2023-02-26T07:11:28.225Z,68.92
2023-02-26T07:13:55.228Z,69.74
2023-02-26T07:16:21.914Z,71.08
2023-02-26T07:18:48.430Z,70.34
2023-02-26T07:21:14.917Z,69.94
2023-02-26T07:23:41.420Z,70.75
2023-02-26T07:26:09.047Z,70.09
2023-02-26T07:28:35.841Z,68.56
2023-02-26T07:31:02.408Z,69.27
2023-02-26T07:33:28.985Z,69.85
2023-02-26T07:35:55.489Z,69.48
2023-02-26T07:38:22.002Z,70.45
2023-02-26T07:40:48.506Z,69.94
2023-02-26T07:43:14.965Z,69.53
2023-02-26T07:45:41.436Z,69.41
2023-02-26T07:48:08.051Z,68.75
2023-02-26T07:50:34.518Z,69.13
2023-02-26T07:53:01.051Z,69.75
2023-02-26T07:55:27.903Z,69.40
2023-02-26T07:57:54.448Z,68.29
2023-02-26T08:00:21.186Z,68.93
2023-02-26T08:02:47.919Z,68.99
2023-02-26T08:05:14.500Z,68.67
2023-02-26T08:07:41.027Z,69.67
2023-02-26T08:10:08.040Z,68.80
2023-02-26T08:12:34.541Z,68.54
2023-02-26T08:15:01.026Z,68.93
2023-02-26T08:17:27.635Z,69.67
2023-02-26T08:19:54.131Z,68.25
2023-02-26T08:22:21.244Z,67.71
2023-02-26T08:24:47.713Z,68.94
2023-02-26T08:27:14.151Z,68.12
2023-02-26T08:29:40.626Z,67.01
2023-02-26T08:32:07.257Z,68.08
2023-02-26T08:34:33.812Z,68.45
2023-02-26T08:37:00.292Z,68.45
2023-02-26T08:39:26.778Z,67.53
2023-02-26T08:41:53.239Z,67.73
2023-02-26T08:44:19.671Z,67.97
2023-02-26T08:46:46.172Z,68.12
2023-02-26T08:49:12.665Z,67.88
2023-02-26T08:51:39.137Z,67.36
2023-02-26T08:54:05.620Z,67.75
2023-02-26T08:56:32.283Z,68.71
2023-02-26T08:58:58.721Z,68.44
2023-02-26T09:01:25.557Z,67.89
2023-02-26T09:03:52.282Z,68.71
2023-02-26T09:06:18.787Z,68.78
2023-02-26T09:08:45.220Z,69.05
2023-02-26T09:11:12.182Z,68.23
2023-02-26T09:13:38.767Z,68.18
2023-02-26T09:16:05.741Z,68.43
2023-02-26T09:18:32.248Z,68.67
2023-02-26T09:20:58.696Z,68.52
2023-02-26T09:23:25.277Z,68.41
2023-02-26T09:25:56.848Z,68.89
2023-02-26T09:28:24.538Z,68.39
2023-02-26T09:30:53.036Z,67.15
2023-02-26T09:33:19.678Z,68.20
2023-02-26T09:35:51.660Z,66.47
2023-02-26T09:38:18.709Z,66.20
2023-02-26T09:40:51.199Z,65.28
2023-02-26T09:43:38.975Z,65.17
2023-02-26T09:46:22.218Z,66.60
2023-02-26T09:48:49.995Z,64.87
2023-02-26T09:51:20.578Z,63.11
2023-02-26T09:53:49.525Z,63.06
2023-02-26T09:56:18.105Z,63.10
2023-02-26T09:58:45.360Z,64.12
2023-02-26T10:01:32.552Z,64.69
2023-02-26T10:04:02.151Z,65.70
2023-02-26T10:06:29.811Z,65.52
2023-02-26T10:09:30.632Z,64.29
2023-02-26T10:12:20.950Z,64.24
2023-02-26T10:14:50.305Z,64.59
2023-02-26T10:17:22.910Z,65.43
2023-02-26T10:19:54.163Z,62.94
2023-02-26T10:22:37.968Z,64.09
2023-02-26T10:25:15.220Z,62.42
2023-02-26T10:28:39.555Z,63.84
2023-02-26T10:31:35.152Z,62.40
2023-02-26T10:34:10.968Z,62.07
2023-02-26T10:36:49.830Z,62.38
2023-02-26T10:39:40.454Z,60.81
2023-02-26T10:42:17.627Z,61.09
2023-02-26T10:45:15.080Z,61.61
2023-02-26T10:48:23.728Z,61.03
2023-02-26T10:50:57.963Z,61.65
2023-02-26T10:53:30.096Z,61.80
2023-02-26T10:56:40.324Z,60.78
2023-02-26T10:59:16.638Z,59.83
2023-02-26T11:01:46.391Z,60.93
2023-02-26T11:04:33.768Z,62.38
2023-02-26T11:07:08.040Z,59.76
2023-02-26T11:09:44.791Z,59.17
2023-02-26T11:12:15.910Z,59.19
2023-02-26T11:14:47.365Z,59.13
2023-02-26T11:17:31.522Z,61.18
2023-02-26T11:20:05.459Z,59.52
2023-02-26T11:22:39.229Z,58.22
2023-02-26T11:25:17.606Z,59.30
2023-02-26T11:27:50.967Z,59.51
2023-02-26T11:30:29.888Z,58.84
2023-02-26T11:33:02.432Z,58.24
2023-02-26T11:35:41.230Z,58.59
2023-02-26T11:38:17.224Z,57.77
2023-02-26T11:40:50.803Z,58.50
2023-02-26T11:43:27.015Z,57.05
2023-02-26T11:46:04.006Z,58.21
2023-02-26T11:48:48.428Z,55.39
2023-02-26T11:51:22.056Z,55.99
2023-02-26T11:54:09.084Z,57.90
2023-02-26T11:56:49.020Z,58.50
2023-02-26T11:59:39.060Z,58.63
2023-02-26T12:02:15.189Z,58.11
2023-02-26T12:04:54.163Z,58.51
2023-02-26T12:07:28.273Z,57.84
2023-02-26T12:09:57.466Z,57.63
2023-02-26T12:13:02.028Z,56.56
2023-02-26T12:15:53.341Z,54.88
2023-02-26T12:18:42.460Z,54.47
2023-02-26T12:21:20.836Z,54.27
2023-02-26T12:24:18.799Z,56.59
2023-02-26T12:26:56.955Z,57.70
2023-02-26T12:30:14.043Z,58.14
2023-02-26T12:33:23.626Z,58.13
2023-02-26T12:36:48.018Z,57.67
2023-02-26T12:39:29.942Z,57.36
2023-02-26T12:42:11.556Z,56.40
2023-02-26T12:45:13.318Z,55.47
2023-02-26T12:48:12.472Z,56.13
2023-02-26T12:50:56.857Z,56.07
2023-02-26T12:53:43.810Z,55.28
2023-02-26T12:56:37.490Z,55.21
2023-02-26T12:59:56.547Z,53.35
2023-02-26T13:03:04.560Z,49.67
2023-02-26T13:05:49.349Z,49.45
2023-02-26T13:08:19.798Z,49.13
2023-02-26T13:11:00.555Z,50.15
2023-02-26T13:13:40.375Z,50.89
2023-02-26T13:16:39.807Z,49.98
2023-02-26T13:19:13.938Z,50.44
2023-02-26T13:22:34.119Z,51.45
2023-02-26T13:25:19.314Z,51.07
2023-02-26T13:27:48.354Z,51.48
2023-02-26T13:30:47.402Z,51.54
2023-02-26T13:33:24.448Z,49.76
2023-02-26T13:36:09.519Z,50.63
2023-02-26T13:39:00.249Z,51.92
2023-02-26T13:42:00.380Z,52.60
2023-02-26T13:44:40.052Z,52.66
2023-02-26T13:47:31.671Z,52.94
2023-02-26T13:50:30.447Z,50.69
2023-02-26T13:53:05.935Z,49.74
2023-02-26T13:55:51.372Z,48.99
2023-02-26T13:58:30.354Z,49.21
2023-02-26T14:01:09.831Z,48.58
2023-02-26T14:03:49.517Z,49.84
2023-02-26T14:06:45.299Z,50.09
2023-02-26T14:09:33.083Z,50.25
2023-02-26T14:12:06.840Z,49.92
2023-02-26T14:15:11.839Z,49.86
2023-02-26T14:17:40.137Z,50.54
2023-02-26T14:20:33.220Z,50.54
2023-02-26T14:23:03.442Z,49.85
2023-02-26T14:26:00.123Z,50.26
2023-02-26T14:28:37.177Z,50.18
2023-02-26T14:31:11.533Z,51.45
2023-02-26T14:34:31.409Z,51.39
2023-02-26T14:37:10.427Z,51.84
2023-02-26T14:39:45.735Z,51.70
2023-02-26T14:42:32.486Z,51.64
2023-02-26T14:45:37.651Z,51.84
2023-02-26T14:48:07.306Z,51.77
2023-02-26T14:50:58.937Z,50.82
2023-02-26T14:53:44.295Z,50.14
2023-02-26T14:56:51.118Z,49.84
2023-02-26T14:59:32.824Z,49.68
2023-02-26T15:02:13.898Z,48.93
2023-02-26T15:05:13.635Z,50.07
2023-02-26T15:08:13.972Z,51.59
2023-02-26T15:11:06.114Z,51.11
2023-02-26T15:14:11.144Z,51.34
2023-02-26T15:16:52.953Z,50.81
2023-02-26T15:19:33.446Z,50.03
2023-02-26T15:22:30.562Z,50.92
2023-02-26T15:25:04.067Z,50.79
2023-02-26T15:27:43.241Z,51.42
2023-02-26T15:30:19.407Z,51.48
2023-02-26T15:32:49.956Z,51.71
2023-02-26T15:35:24.100Z,51.97
2023-02-26T15:38:03.987Z,52.21
2023-02-26T15:40:56.983Z,53.03
2023-02-26T15:43:34.225Z,52.34
2023-02-26T15:46:05.181Z,52.80
2023-02-26T15:48:40.802Z,51.88
2023-02-26T15:51:24.076Z,52.48
2023-02-26T15:53:58.836Z,51.75
2023-02-26T15:56:33.243Z,53.86
2023-02-26T15:59:17.626Z,52.67
2023-02-26T16:01:51.596Z,52.48
2023-02-26T16:04:24.592Z,51.52
2023-02-26T16:07:08.351Z,53.40
2023-02-26T16:09:44.485Z,52.78
2023-02-26T16:12:22.322Z,53.34
2023-02-26T16:15:09.619Z,53.77
2023-02-26T16:17:41.615Z,53.85
2023-02-26T16:20:31.112Z,54.12
2023-02-26T16:23:14.566Z,54.21
2023-02-26T16:26:05.804Z,54.55
2023-02-26T16:28:36.839Z,53.92
2023-02-26T16:31:10.586Z,54.66
2023-02-26T16:33:40.463Z,54.35
2023-02-26T16:36:16.614Z,55.17
2023-02-26T16:38:46.800Z,55.71
2023-02-26T16:41:20.368Z,55.33
2023-02-26T16:43:58.430Z,55.80
2023-02-26T16:46:57.411Z,56.08
2023-02-26T16:49:39.632Z,55.15
2023-02-26T16:52:23.542Z,54.72
2023-02-26T16:55:00.485Z,54.74
2023-02-26T16:57:54.247Z,55.44
2023-02-26T17:00:34.555Z,55.30
2023-02-26T17:03:13.464Z,55.27
2023-02-26T17:05:44.294Z,55.71
2023-02-26T17:08:13.900Z,54.84
2023-02-26T17:10:45.972Z,55.27
2023-02-26T17:13:28.835Z,55.65
2023-02-26T17:16:07.506Z,56.11
2023-02-26T17:18:34.493Z,56.26
2023-02-26T17:21:08.072Z,56.05
2023-02-26T17:23:46.684Z,55.88
2023-02-26T17:26:14.269Z,55.86
2023-02-26T17:28:44.757Z,55.67
2023-02-26T17:31:13.936Z,56.58
2023-02-26T17:33:43.578Z,56.51
2023-02-26T17:36:19.392Z,56.46
2023-02-26T17:38:47.882Z,56.94
2023-02-26T17:41:17.860Z,56.82
2023-02-26T17:43:44.620Z,56.83
2023-02-26T17:46:12.425Z,57.20
2023-02-26T17:48:39.597Z,57.43
2023-02-26T17:51:07.146Z,57.72
2023-02-26T17:53:40.815Z,57.92
2023-02-26T17:56:12.599Z,58.07
2023-02-26T17:58:39.582Z,57.59
2023-02-26T18:01:06.495Z,58.37
2023-02-26T18:03:33.095Z,57.58
2023-02-26T18:05:59.936Z,57.39
2023-02-26T18:08:32.593Z,57.29
2023-02-26T18:10:59.640Z,56.88
2023-02-26T18:13:27.124Z,56.33
2023-02-26T18:15:55.098Z,57.13
2023-02-26T18:18:22.524Z,58.19
2023-02-26T18:20:49.187Z,59.60
2023-02-26T18:23:16.782Z,60.35
2023-02-26T18:25:48.362Z,60.02
2023-02-26T18:28:18.093Z,60.25
2023-02-26T18:30:45.000Z,59.75
2023-02-26T18:33:12.671Z,60.17
2023-02-26T18:35:45.710Z,59.30
2023-02-26T18:38:13.904Z,59.06
2023-02-26T18:40:41.093Z,59.14
2023-02-26T18:43:10.387Z,59.41
2023-02-26T18:45:36.831Z,60.02
2023-02-26T18:48:03.677Z,60.53
2023-02-26T18:50:30.791Z,60.90
2023-02-26T18:52:57.277Z,61.54
2023-02-26T18:55:23.828Z,60.85
2023-02-26T18:57:50.276Z,60.11
2023-02-26T19:00:17.142Z,60.32
2023-02-26T19:02:44.916Z,59.85
2023-02-26T19:05:12.236Z,58.90
2023-02-26T19:07:38.838Z,59.09
2023-02-26T19:10:08.070Z,59.62
2023-02-26T19:12:35.138Z,59.59
2023-02-26T19:15:01.697Z,60.70
2023-02-26T19:17:28.177Z,61.98
2023-02-26T19:19:54.705Z,61.45
2023-02-26T19:22:21.152Z,62.49
2023-02-26T19:24:47.681Z,62.78
2023-02-26T19:27:15.102Z,62.45
2023-02-26T19:29:42.289Z,62.38
2023-02-26T19:32:09.263Z,62.89
2023-02-26T19:34:36.210Z,62.54
2023-02-26T19:37:02.685Z,61.77
2023-02-26T19:39:29.189Z,62.01
2023-02-26T19:41:56.089Z,63.17
2023-02-26T19:44:23.979Z,63.92
2023-02-26T19:46:50.882Z,64.66
2023-02-26T19:49:17.764Z,65.02
2023-02-26T19:51:44.316Z,64.96
2023-02-26T19:54:12.656Z,65.08
2023-02-26T19:56:40.443Z,64.75
2023-02-26T19:59:07.639Z,64.36
2023-02-26T20:01:34.467Z,64.95
2023-02-26T20:04:01.027Z,65.45
2023-02-26T20:06:27.774Z,65.50
2023-02-26T20:08:54.242Z,64.63
2023-02-26T20:11:20.753Z,64.48
2023-02-26T20:13:47.253Z,63.72
2023-02-26T20:16:14.016Z,63.89
2023-02-26T20:18:40.513Z,65.89
2023-02-26T20:21:09.720Z,65.33
2023-02-26T20:23:37.687Z,66.68
2023-02-26T20:26:09.728Z,65.60
2023-02-26T20:28:36.415Z,65.48
2023-02-26T20:31:03.542Z,65.41
2023-02-26T20:33:33.159Z,64.30
2023-02-26T20:36:00.311Z,64.17
2023-02-26T20:38:28.219Z,64.82
2023-02-26T20:40:55.301Z,66.04
2023-02-26T20:43:21.738Z,65.61
2023-02-26T20:45:49.157Z,65.26
2023-02-26T20:48:15.648Z,65.42
2023-02-26T20:50:42.150Z,65.67
2023-02-26T20:53:08.897Z,66.25
2023-02-26T20:55:35.703Z,65.68
2023-02-26T20:58:02.459Z,63.54
2023-02-26T21:00:29.371Z,63.76
2023-02-26T21:02:55.910Z,64.86
2023-02-26T21:05:22.792Z,64.56
2023-02-26T21:07:50.639Z,65.76
2023-02-26T21:10:18.419Z,65.16
2023-02-26T21:12:45.121Z,65.90
2023-02-26T21:15:12.442Z,66.32
2023-02-26T21:17:40.899Z,66.50
2023-02-26T21:20:09.101Z,66.84
2023-02-26T21:22:36.546Z,67.77
2023-02-26T21:25:04.164Z,65.39
2023-02-26T21:27:30.704Z,65.15
2023-02-26T21:29:57.167Z,64.03
2023-02-26T21:32:23.697Z,65.86
2023-02-26T21:34:50.186Z,65.20
2023-02-26T21:37:16.674Z,65.71
2023-02-26T21:39:43.171Z,65.29
2023-02-26T21:42:12.339Z,65.62
2023-02-26T21:44:38.798Z,65.00
2023-02-26T21:47:05.387Z,64.51
2023-02-26T21:49:32.581Z,62.91
2023-02-26T21:52:00.148Z,63.40
2023-02-26T21:54:26.850Z,64.73
2023-02-26T21:56:53.586Z,65.63
2023-02-26T21:59:20.498Z,66.32
2023-02-26T22:01:47.006Z,65.35
2023-02-26T22:04:13.455Z,66.22
2023-02-26T22:06:39.992Z,66.72
2023-02-26T22:09:06.673Z,66.71
2023-02-26T22:11:33.216Z,66.63
2023-02-26T22:13:59.698Z,66.31
2023-02-26T22:16:26.283Z,67.08
2023-02-26T22:18:52.731Z,66.82
2023-02-26T22:21:19.217Z,66.65
2023-02-26T22:23:45.697Z,67.30
2023-02-26T22:26:12.235Z,66.79
2023-02-26T22:28:38.733Z,66.58
2023-02-26T22:31:05.405Z,65.64
2023-02-26T22:33:31.985Z,66.07
2023-02-26T22:36:00.066Z,66.18
2023-02-26T22:38:26.887Z,66.94
2023-02-26T22:40:53.449Z,67.37
2023-02-26T22:43:20.362Z,67.95
2023-02-26T22:45:47.671Z,67.88
2023-02-26T22:48:14.453Z,68.02
2023-02-26T22:50:42.160Z,67.94
2023-02-26T22:53:08.595Z,67.95
2023-02-26T22:55:35.093Z,67.96
2023-02-26T22:58:01.568Z,67.68
2023-02-26T23:00:28.839Z,67.91
2023-02-26T23:02:55.792Z,68.14
2023-02-26T23:05:23.501Z,69.20
2023-02-26T23:07:53.984Z,68.46
2023-02-26T23:10:21.958Z,68.56
2023-02-26T23:12:48.838Z,67.62
2023-02-26T23:15:16.065Z,67.49
2023-02-26T23:17:42.867Z,66.68
2023-02-26T23:20:14.049Z,66.83
2023-02-26T23:22:43.947Z,67.00
2023-02-26T23:25:15.149Z,67.13
2023-02-26T23:27:42.129Z,66.65
2023-02-26T23:30:09.606Z,66.34
2023-02-26T23:32:36.952Z,65.43
2023-02-26T23:35:04.516Z,64.93
2023-02-26T23:37:31.359Z,65.21
2023-02-26T23:39:58.632Z,65.51
2023-02-26T23:42:25.152Z,64.50
2023-02-26T23:44:51.664Z,64.71
2023-02-26T23:47:18.859Z,65.03
2023-02-26T23:49:45.349Z,64.19
2023-02-26T23:52:11.876Z,64.23
2023-02-26T23:54:40.104Z,64.89
2023-02-26T23:57:07.443Z,63.93
2023-02-26T23:59:34.174Z,63.63
